createdAt,value
2019-04-30T00:03:41.775Z,14.26
2019-04-30T00:08:47.258Z,14.32
2019-04-30T00:13:55.354Z,14.37
2019-04-30T00:19:00.898Z,14.39
2019-04-30T00:24:10.285Z,14.39
2019-04-30T00:29:19.129Z,14.42
2019-04-30T00:34:21.012Z,14.42
2019-04-30T00:39:27.262Z,14.41
2019-04-30T00:44:32.768Z,14.38
2019-04-30T00:49:38.239Z,14.37
2019-04-30T00:54:45.210Z,14.38
2019-04-30T00:59:50.910Z,14.42
2019-04-30T01:05:05.289Z,14.43
2019-04-30T01:10:07.045Z,14.40
2019-04-30T01:15:14.443Z,14.44
2019-04-30T01:20:23.973Z,14.40
2019-04-30T01:25:28.826Z,14.35
2019-04-30T01:30:34.497Z,14.35
2019-04-30T01:35:40.618Z,14.35
2019-04-30T01:40:47.546Z,14.37
2019-04-30T01:45:53.317Z,14.36
2019-04-30T01:51:01.115Z,14.39
2019-04-30T01:56:22.798Z,14.45
2019-04-30T02:01:31.184Z,14.47
2019-04-30T02:06:36.966Z,14.51
2019-04-30T02:11:42.647Z,14.51
2019-04-30T02:16:49.433Z,14.51
2019-04-30T02:21:54.985Z,14.44
2019-04-30T02:27:00.425Z,14.43
2019-04-30T02:32:06.116Z,14.38
2019-04-30T02:37:21.551Z,14.37
2019-04-30T02:42:29.595Z,14.37
2019-04-30T02:47:34.209Z,14.36
2019-04-30T02:52:40.209Z,14.37
2019-04-30T02:57:45.792Z,14.39
2019-04-30T03:02:51.276Z,14.41
2019-04-30T03:07:56.822Z,14.37
2019-04-30T03:13:02.245Z,14.36
2019-04-30T03:18:23.019Z,14.33
2019-04-30T03:23:29.369Z,14.29
2019-04-30T03:28:34.909Z,14.28
2019-04-30T03:33:42.498Z,14.28
2019-04-30T03:38:49.900Z,14.28
2019-04-30T03:43:54.778Z,14.30
2019-04-30T03:49:00.270Z,14.31
2019-04-30T03:54:05.726Z,14.34
2019-04-30T03:59:11.162Z,14.34
2019-04-30T04:04:26.155Z,14.31
2019-04-30T04:09:39.981Z,14.30
2019-04-30T04:14:44.857Z,14.27
2019-04-30T04:19:51.127Z,14.26
2019-04-30T04:24:59.722Z,14.26
2019-04-30T04:30:04.164Z,14.27
2019-04-30T04:35:12.624Z,14.30
2019-04-30T04:40:17.000Z,14.32
2019-04-30T04:45:22.552Z,14.33
2019-04-30T04:50:30.181Z,14.35
2019-04-30T04:55:35.563Z,14.35
2019-04-30T05:00:41.100Z,14.38
2019-04-30T05:05:46.589Z,14.44
2019-04-30T05:10:52.045Z,14.50
2019-04-30T05:15:59.415Z,14.58
2019-04-30T05:21:04.769Z,14.72
2019-04-30T05:26:11.088Z,14.86
2019-04-30T05:31:18.482Z,14.97
2019-04-30T05:36:23.929Z,15.14
2019-04-30T05:41:29.519Z,15.25
2019-04-30T05:46:35.051Z,15.32
2019-04-30T05:51:52.620Z,15.40
2019-04-30T05:56:49.303Z,15.62
2019-04-30T06:01:54.949Z,15.85
2019-04-30T06:07:00.635Z,16.07
2019-04-30T06:12:33.751Z,16.10
2019-04-30T06:17:39.395Z,16.11
2019-04-30T06:22:44.804Z,16.07
2019-04-30T06:27:50.238Z,16.03
2019-04-30T06:32:55.684Z,16.03
2019-04-30T06:38:01.282Z,16.01
2019-04-30T06:43:06.750Z,16.18
2019-04-30T06:48:16.865Z,17.32
2019-04-30T06:53:22.399Z,19.61
2019-04-30T06:58:29.111Z,22.01
2019-04-30T07:03:35.130Z,24.48
2019-04-30T07:09:11.869Z,24.69
2019-04-30T07:14:19.444Z,23.44
2019-04-30T07:19:33.025Z,23.22
2019-04-30T07:24:32.030Z,24.49
2019-04-30T07:29:39.271Z,27.52
2019-04-30T07:34:44.945Z,29.86
2019-04-30T07:39:50.678Z,32.64
2019-04-30T07:44:56.613Z,33.42
2019-04-30T07:50:02.389Z,31.14
2019-04-30T07:55:09.802Z,30.28
2019-04-30T08:00:15.941Z,29.49
2019-04-30T08:05:29.880Z,27.43
2019-04-30T08:10:35.232Z,25.56
2019-04-30T08:15:42.331Z,24.82
2019-04-30T08:20:48.988Z,27.32
2019-04-30T08:25:54.638Z,27.15
2019-04-30T08:31:00.056Z,27.18
2019-04-30T08:36:05.520Z,29.88
2019-04-30T08:41:11.243Z,34.20
2019-04-30T08:46:19.025Z,38.82
2019-04-30T08:51:24.659Z,41.91
2019-04-30T08:56:30.591Z,43.90
2019-04-30T09:01:36.384Z,46.26
2019-04-30T09:06:42.191Z,47.45
2019-04-30T09:11:54.692Z,47.40
2019-04-30T09:16:55.661Z,47.88
2019-04-30T09:22:01.427Z,46.67
2019-04-30T09:27:10.597Z,47.91
2019-04-30T09:32:14.737Z,49.51
2019-04-30T09:37:20.595Z,48.14
2019-04-30T09:42:26.363Z,44.16
2019-04-30T09:47:32.118Z,42.22
2019-04-30T09:52:39.571Z,39.07
2019-04-30T09:57:45.709Z,35.40
2019-04-30T10:02:51.405Z,32.18
2019-04-30T10:07:59.220Z,29.72
2019-04-30T10:13:04.701Z,27.81
2019-04-30T10:18:10.537Z,26.88
2019-04-30T10:23:15.965Z,26.09
2019-04-30T10:28:21.472Z,25.52
2019-04-30T10:33:28.671Z,24.68
2019-04-30T10:38:34.287Z,24.08
2019-04-30T10:43:39.809Z,23.87
2019-04-30T10:48:45.294Z,23.34
2019-04-30T10:53:50.899Z,23.01
2019-04-30T10:58:56.389Z,22.95
2019-04-30T11:04:01.925Z,22.78
2019-04-30T11:09:08.735Z,22.55
2019-04-30T11:14:14.255Z,22.01
2019-04-30T11:19:19.837Z,22.08
2019-04-30T11:24:35.989Z,22.52
2019-04-30T11:29:34.574Z,22.93
2019-04-30T11:34:40.433Z,22.84
2019-04-30T11:39:46.163Z,22.82
2019-04-30T11:44:51.620Z,22.66
2019-04-30T11:49:57.264Z,22.60
2019-04-30T11:55:02.858Z,22.63
2019-04-30T12:00:10.803Z,22.71
2019-04-30T12:05:20.570Z,22.55
2019-04-30T12:10:50.384Z,22.52
2019-04-30T12:15:58.664Z,22.48
2019-04-30T12:21:03.708Z,22.53
2019-04-30T12:26:09.348Z,22.47
2019-04-30T12:31:14.948Z,22.29
2019-04-30T12:36:20.549Z,22.22
2019-04-30T12:41:26.052Z,22.14
2019-04-30T12:46:31.721Z,22.16
2019-04-30T12:52:02.076Z,22.43
2019-04-30T12:57:32.391Z,22.74
2019-04-30T13:02:37.986Z,23.12
2019-04-30T13:07:43.905Z,23.35
2019-04-30T13:12:50.285Z,23.47
2019-04-30T13:17:56.016Z,23.55
2019-04-30T13:23:01.465Z,23.48
2019-04-30T13:28:11.875Z,23.30
2019-04-30T13:33:39.270Z,23.57
2019-04-30T13:38:52.957Z,23.68
2019-04-30T13:44:00.050Z,23.57
2019-04-30T13:49:05.536Z,23.39
2019-04-30T13:54:11.215Z,23.32
2019-04-30T13:59:16.617Z,23.56
2019-04-30T14:04:47.205Z,23.86
2019-04-30T14:09:52.809Z,23.92
2019-04-30T14:14:59.212Z,23.79
2019-04-30T14:20:04.999Z,23.71
2019-04-30T14:25:10.538Z,23.63
2019-04-30T14:30:16.790Z,23.70
2019-04-30T14:35:22.343Z,23.72
2019-04-30T14:40:29.947Z,23.87
2019-04-30T14:45:52.951Z,24.03
2019-04-30T14:50:58.616Z,23.78
2019-04-30T14:56:31.825Z,23.39
2019-04-30T15:01:51.722Z,23.33
2019-04-30T15:06:58.799Z,23.66
2019-04-30T15:12:04.608Z,23.74
2019-04-30T15:17:10.215Z,23.52
2019-04-30T15:22:15.717Z,23.28
2019-04-30T15:27:21.165Z,22.97
2019-04-30T15:32:28.453Z,22.71
2019-04-30T15:37:34.194Z,22.61
2019-04-30T15:42:42.849Z,22.89
2019-04-30T15:47:48.676Z,23.18
2019-04-30T15:52:54.179Z,23.21
2019-04-30T15:58:15.951Z,23.00
2019-04-30T16:03:25.729Z,22.79
2019-04-30T16:08:39.086Z,22.70
2019-04-30T16:14:18.870Z,22.51
2019-04-30T16:19:24.414Z,22.29
2019-04-30T16:24:29.972Z,22.13
2019-04-30T16:29:35.634Z,21.85
2019-04-30T16:34:41.190Z,21.58
2019-04-30T16:39:46.686Z,21.37
2019-04-30T16:44:52.144Z,21.29
2019-04-30T16:49:58.898Z,21.09
2019-04-30T16:55:04.521Z,20.89
2019-04-30T17:00:10.339Z,20.69
2019-04-30T17:05:26.338Z,20.47
2019-04-30T17:10:47.233Z,20.26
2019-04-30T17:15:56.098Z,20.09
2019-04-30T17:21:01.816Z,19.86
2019-04-30T17:26:07.410Z,19.65
2019-04-30T17:31:13.555Z,19.50
2019-04-30T17:36:19.357Z,19.29
2019-04-30T17:41:25.080Z,19.05
2019-04-30T17:46:30.559Z,18.91
2019-04-30T17:51:36.102Z,18.75
2019-04-30T17:56:41.787Z,18.57
2019-04-30T18:01:54.952Z,18.40
2019-04-30T18:07:00.498Z,18.24
2019-04-30T18:12:05.991Z,18.11
2019-04-30T18:17:11.650Z,17.94
2019-04-30T18:22:26.377Z,17.79
2019-04-30T18:27:45.294Z,17.60
2019-04-30T18:32:44.129Z,17.45
2019-04-30T18:37:49.613Z,17.29
2019-04-30T18:42:55.123Z,17.13
2019-04-30T18:48:02.923Z,16.97
2019-04-30T18:53:20.269Z,16.81
2019-04-30T18:58:38.907Z,16.62
2019-04-30T19:03:33.637Z,16.48
2019-04-30T19:08:48.429Z,16.34
2019-04-30T19:14:11.381Z,16.18
2019-04-30T19:19:22.617Z,16.03
2019-04-30T19:24:28.040Z,15.91
2019-04-30T19:29:33.445Z,15.81
2019-04-30T19:34:39.116Z,15.69
2019-04-30T19:39:44.617Z,15.60
2019-04-30T19:44:58.873Z,15.49
2019-04-30T19:49:59.402Z,15.37
2019-04-30T19:55:04.447Z,15.26
2019-04-30T20:00:09.928Z,15.17
2019-04-30T20:05:15.388Z,15.09
2019-04-30T20:10:20.802Z,15.01
2019-04-30T20:15:26.420Z,14.93
2019-04-30T20:20:31.844Z,14.85
2019-04-30T20:25:37.436Z,14.75
2019-04-30T20:30:42.859Z,14.67
2019-04-30T20:35:48.899Z,14.59
2019-04-30T20:41:00.114Z,14.50
2019-04-30T20:46:01.748Z,14.41
2019-04-30T20:51:07.157Z,14.32
2019-04-30T20:56:12.820Z,14.24
2019-04-30T21:01:19.319Z,14.18
2019-04-30T21:06:24.856Z,14.10
2019-04-30T21:11:30.298Z,14.04
2019-04-30T21:16:35.901Z,13.97
2019-04-30T21:21:41.427Z,13.90
2019-04-30T21:26:46.974Z,13.82
2019-04-30T21:32:21.290Z,13.76
2019-04-30T21:37:26.925Z,13.64
2019-04-30T21:42:32.378Z,13.57
2019-04-30T21:47:37.836Z,13.50
2019-04-30T21:52:43.469Z,13.44
2019-04-30T21:57:49.648Z,13.37
2019-04-30T22:02:55.185Z,13.30
2019-04-30T22:08:01.787Z,13.23
2019-04-30T22:13:08.908Z,13.16
2019-04-30T22:18:14.613Z,13.10
2019-04-30T22:23:20.057Z,13.04
2019-04-30T22:28:25.467Z,12.97
2019-04-30T22:33:31.124Z,12.89
2019-04-30T22:38:41.013Z,12.84
2019-04-30T22:43:46.440Z,12.78
2019-04-30T22:48:51.901Z,12.70
2019-04-30T22:53:57.330Z,12.65
2019-04-30T22:59:02.711Z,12.58
2019-04-30T23:04:11.980Z,12.51
2019-04-30T23:09:17.441Z,12.45
2019-04-30T23:14:22.859Z,12.38
2019-04-30T23:19:28.282Z,12.33
2019-04-30T23:24:33.704Z,12.27
2019-04-30T23:29:39.124Z,12.20
2019-04-30T23:34:44.599Z,12.11
2019-04-30T23:39:50.147Z,12.03
2019-04-30T23:44:55.623Z,11.95
2019-04-30T23:50:01.065Z,11.87
2019-04-30T23:55:06.651Z,11.80
